sensor_id;sensor_type;location;lat;lon;timestamp;pressure;altitude;pressure_sealevel;temperature;humidity
9738;BME280;4908;47.446;13.900;2022-07-15T00:02:21;92826.00;;;18.58;100.00
9738;BME280;4908;47.446;13.900;2022-07-15T00:04:48;92817.16;;;18.70;100.00
9738;BME280;4908;47.446;13.900;2022-07-15T00:07:15;92810.50;;;18.71;100.00
9738;BME280;4908;47.446;13.900;2022-07-15T00:09:43;92822.41;;;18.61;100.00
9738;BME280;4908;47.446;13.900;2022-07-15T00:12:28;92827.41;;;18.34;100.00
9738;BME280;4908;47.446;13.900;2022-07-15T00:14:55;92818.28;;;18.28;100.00
9738;BME280;4908;47.446;13.900;2022-07-15T00:17:21;92814.69;;;18.47;100.00
9738;BME280;4908;47.446;13.900;2022-07-15T00:19:48;92791.47;;;18.46;100.00
9738;BME280;4908;47.446;13.900;2022-07-15T00:22:15;92801.63;;;18.42;100.00
9738;BME280;4908;47.446;13.900;2022-07-15T00:24:43;92793.13;;;18.56;100.00
9738;BME280;4908;47.446;13.900;2022-07-15T00:27:10;92797.91;;;18.36;100.00
9738;BME280;4908;47.446;13.900;2022-07-15T00:29:37;92825.97;;;18.01;100.00
9738;BME280;4908;47.446;13.900;2022-07-15T00:32:04;92820.53;;;18.01;100.00
9738;BME280;4908;47.446;13.900;2022-07-15T00:34:31;92832.03;;;18.05;100.00
9738;BME280;4908;47.446;13.900;2022-07-15T00:36:58;92831.63;;;17.90;100.00
9738;BME280;4908;47.446;13.900;2022-07-15T00:39:24;92840.25;;;18.18;100.00
9738;BME280;4908;47.446;13.900;2022-07-15T00:41:53;92843.53;;;18.09;100.00
9738;BME280;4908;47.446;13.900;2022-07-15T00:44:19;92843.06;;;17.98;100.00
9738;BME280;4908;47.446;13.900;2022-07-15T00:46:47;92849.41;;;18.08;100.00
9738;BME280;4908;47.446;13.900;2022-07-15T00:49:14;92843.16;;;18.11;100.00
9738;BME280;4908;47.446;13.900;2022-07-15T00:51:43;92848.97;;;18.09;100.00
9738;BME280;4908;47.446;13.900;2022-07-15T00:54:12;92847.22;;;18.03;100.00
9738;BME280;4908;47.446;13.900;2022-07-15T00:56:41;92834.50;;;18.00;100.00
9738;BME280;4908;47.446;13.900;2022-07-15T00:59:10;92834.25;;;18.10;100.00
9738;BME280;4908;47.446;13.900;2022-07-15T01:01:40;92823.09;;;18.21;100.00
9738;BME280;4908;47.446;13.900;2022-07-15T01:04:12;92840.53;;;18.36;100.00
9738;BME280;4908;47.446;13.900;2022-07-15T01:06:40;92833.78;;;18.28;100.00
9738;BME280;4908;47.446;13.900;2022-07-15T01:09:08;92839.31;;;18.82;100.00
9738;BME280;4908;47.446;13.900;2022-07-15T01:11:35;92844.34;;;18.96;100.00
9738;BME280;4908;47.446;13.900;2022-07-15T01:14:03;92831.09;;;18.98;100.00
9738;BME280;4908;47.446;13.900;2022-07-15T01:16:31;92835.31;;;18.99;100.00
9738;BME280;4908;47.446;13.900;2022-07-15T01:18:58;92826.88;;;19.22;100.00
9738;BME280;4908;47.446;13.900;2022-07-15T01:21:26;92836.59;;;19.48;100.00
9738;BME280;4908;47.446;13.900;2022-07-15T01:23:53;92840.44;;;19.22;100.00
9738;BME280;4908;47.446;13.900;2022-07-15T01:26:20;92850.75;;;19.14;100.00
9738;BME280;4908;47.446;13.900;2022-07-15T01:28:47;92857.69;;;18.90;100.00
9738;BME280;4908;47.446;13.900;2022-07-15T01:31:13;92850.81;;;18.86;100.00
9738;BME280;4908;47.446;13.900;2022-07-15T01:33:40;92859.97;;;18.92;100.00
9738;BME280;4908;47.446;13.900;2022-07-15T01:36:07;92851.28;;;18.97;100.00
9738;BME280;4908;47.446;13.900;2022-07-15T01:38:35;92854.66;;;19.01;100.00
9738;BME280;4908;47.446;13.900;2022-07-15T01:41:02;92851.94;;;19.01;100.00
9738;BME280;4908;47.446;13.900;2022-07-15T01:43:29;92851.59;;;18.99;100.00
9738;BME280;4908;47.446;13.900;2022-07-15T01:45:56;92854.25;;;19.02;100.00
9738;BME280;4908;47.446;13.900;2022-07-15T01:48:23;92851.09;;;19.04;100.00
9738;BME280;4908;47.446;13.900;2022-07-15T01:51:07;92849.13;;;19.17;100.00
9738;BME280;4908;47.446;13.900;2022-07-15T01:53:36;92844.00;;;19.06;100.00
9738;BME280;4908;47.446;13.900;2022-07-15T01:56:03;92848.69;;;19.06;100.00
9738;BME280;4908;47.446;13.900;2022-07-15T01:58:30;92848.91;;;19.11;100.00
9738;BME280;4908;47.446;13.900;2022-07-15T02:00:57;92864.31;;;19.02;100.00
9738;BME280;4908;47.446;13.900;2022-07-15T02:03:24;92859.34;;;19.00;100.00
9738;BME280;4908;47.446;13.900;2022-07-15T02:05:52;92871.94;;;19.07;100.00
9738;BME280;4908;47.446;13.900;2022-07-15T02:08:19;92868.03;;;19.08;100.00
9738;BME280;4908;47.446;13.900;2022-07-15T02:10:47;92879.28;;;18.94;100.00
9738;BME280;4908;47.446;13.900;2022-07-15T02:13:14;92870.19;;;18.71;100.00
9738;BME280;4908;47.446;13.900;2022-07-15T02:15:41;92873.97;;;18.61;100.00
9738;BME280;4908;47.446;13.900;2022-07-15T02:18:08;92882.44;;;18.63;100.00
9738;BME280;4908;47.446;13.900;2022-07-15T02:20:36;92885.78;;;18.55;100.00
9738;BME280;4908;47.446;13.900;2022-07-15T02:23:03;92870.13;;;18.46;100.00
9738;BME280;4908;47.446;13.900;2022-07-15T02:25:32;92872.06;;;18.46;100.00
9738;BME280;4908;47.446;13.900;2022-07-15T02:28:03;92857.56;;;18.36;100.00
9738;BME280;4908;47.446;13.900;2022-07-15T02:30:32;92865.69;;;18.52;100.00
9738;BME280;4908;47.446;13.900;2022-07-15T02:32:59;92875.69;;;18.39;100.00
9738;BME280;4908;47.446;13.900;2022-07-15T02:35:26;92885.13;;;18.19;100.00
9738;BME280;4908;47.446;13.900;2022-07-15T02:37:53;92886.75;;;18.16;100.00
9738;BME280;4908;47.446;13.900;2022-07-15T02:40:21;92889.63;;;18.25;100.00
9738;BME280;4908;47.446;13.900;2022-07-15T02:42:48;92895.19;;;18.50;100.00
9738;BME280;4908;47.446;13.900;2022-07-15T02:45:18;92895.53;;;18.36;100.00
9738;BME280;4908;47.446;13.900;2022-07-15T02:47:45;92901.63;;;18.40;100.00
9738;BME280;4908;47.446;13.900;2022-07-15T02:50:12;92902.47;;;18.37;100.00
9738;BME280;4908;47.446;13.900;2022-07-15T02:52:40;92902.34;;;18.12;100.00
9738;BME280;4908;47.446;13.900;2022-07-15T02:55:08;92914.03;;;18.09;100.00
9738;BME280;4908;47.446;13.900;2022-07-15T02:57:34;92912.50;;;18.24;100.00
9738;BME280;4908;47.446;13.900;2022-07-15T03:00:02;92918.94;;;18.30;100.00
9738;BME280;4908;47.446;13.900;2022-07-15T03:02:30;92920.31;;;18.22;100.00
9738;BME280;4908;47.446;13.900;2022-07-15T03:04:57;92919.78;;;18.27;100.00
9738;BME280;4908;47.446;13.900;2022-07-15T03:07:26;92938.72;;;18.59;100.00
9738;BME280;4908;47.446;13.900;2022-07-15T03:09:54;92925.88;;;18.31;100.00
9738;BME280;4908;47.446;13.900;2022-07-15T03:12:21;92924.72;;;18.16;100.00
9738;BME280;4908;47.446;13.900;2022-07-15T03:14:47;92918.66;;;18.25;100.00
9738;BME280;4908;47.446;13.900;2022-07-15T03:17:14;92918.44;;;18.19;100.00
9738;BME280;4908;47.446;13.900;2022-07-15T03:19:42;92912.84;;;18.10;100.00
9738;BME280;4908;47.446;13.900;2022-07-15T03:22:09;92925.88;;;18.31;100.00
9738;BME280;4908;47.446;13.900;2022-07-15T03:24:36;92942.06;;;18.35;100.00
9738;BME280;4908;47.446;13.900;2022-07-15T03:27:03;92945.09;;;18.37;100.00
9738;BME280;4908;47.446;13.900;2022-07-15T03:29:30;92946.53;;;18.41;100.00
9738;BME280;4908;47.446;13.900;2022-07-15T03:31:57;92951.13;;;18.44;100.00
9738;BME280;4908;47.446;13.900;2022-07-15T03:34:23;92957.91;;;18.52;100.00
9738;BME280;4908;47.446;13.900;2022-07-15T03:36:53;92952.16;;;18.50;100.00
9738;BME280;4908;47.446;13.900;2022-07-15T03:39:20;92940.88;;;18.52;100.00
9738;BME280;4908;47.446;13.900;2022-07-15T03:41:47;92947.25;;;18.45;100.00
9738;BME280;4908;47.446;13.900;2022-07-15T03:44:14;92952.81;;;18.70;100.00
9738;BME280;4908;47.446;13.900;2022-07-15T03:46:41;92950.19;;;18.67;100.00
9738;BME280;4908;47.446;13.900;2022-07-15T03:49:11;92952.50;;;18.52;100.00
9738;BME280;4908;47.446;13.900;2022-07-15T03:51:37;92941.72;;;18.49;100.00
9738;BME280;4908;47.446;13.900;2022-07-15T03:54:06;92950.59;;;18.65;100.00
9738;BME280;4908;47.446;13.900;2022-07-15T03:56:33;92956.56;;;18.44;100.00
9738;BME280;4908;47.446;13.900;2022-07-15T03:59:00;92969.34;;;18.28;100.00
9738;BME280;4908;47.446;13.900;2022-07-15T04:01:27;92968.41;;;18.34;100.00
9738;BME280;4908;47.446;13.900;2022-07-15T04:03:54;92985.34;;;18.38;100.00
9738;BME280;4908;47.446;13.900;2022-07-15T04:06:21;92977.81;;;18.62;100.00
9738;BME280;4908;47.446;13.900;2022-07-15T04:08:50;92986.03;;;18.74;100.00
9738;BME280;4908;47.446;13.900;2022-07-15T04:11:18;92975.63;;;18.57;100.00
9738;BME280;4908;47.446;13.900;2022-07-15T04:13:46;92992.13;;;18.78;100.00
9738;BME280;4908;47.446;13.900;2022-07-15T04:16:13;92994.31;;;18.84;100.00
9738;BME280;4908;47.446;13.900;2022-07-15T04:18:40;92988.44;;;18.56;100.00
9738;BME280;4908;47.446;13.900;2022-07-15T04:21:07;92995.63;;;18.63;100.00
9738;BME280;4908;47.446;13.900;2022-07-15T04:23:34;92998.94;;;18.70;100.00
9738;BME280;4908;47.446;13.900;2022-07-15T04:26:01;93007.22;;;18.63;100.00
9738;BME280;4908;47.446;13.900;2022-07-15T04:28:29;93015.50;;;18.44;100.00
9738;BME280;4908;47.446;13.900;2022-07-15T04:30:56;93019.38;;;18.43;100.00
9738;BME280;4908;47.446;13.900;2022-07-15T04:33:23;93005.72;;;18.30;100.00
9738;BME280;4908;47.446;13.900;2022-07-15T04:35:50;93015.03;;;18.29;100.00
9738;BME280;4908;47.446;13.900;2022-07-15T04:38:17;93033.16;;;18.16;100.00
9738;BME280;4908;47.446;13.900;2022-07-15T04:40:44;93044.47;;;17.95;100.00
9738;BME280;4908;47.446;13.900;2022-07-15T04:43:11;93040.84;;;17.82;100.00
9738;BME280;4908;47.446;13.900;2022-07-15T04:45:39;93066.88;;;17.79;100.00
9738;BME280;4908;47.446;13.900;2022-07-15T04:48:06;93079.63;;;17.79;100.00
9738;BME280;4908;47.446;13.900;2022-07-15T04:50:54;93071.59;;;17.56;100.00
9738;BME280;4908;47.446;13.900;2022-07-15T04:53:21;93072.59;;;17.42;100.00
9738;BME280;4908;47.446;13.900;2022-07-15T04:55:48;93065.25;;;17.43;100.00
9738;BME280;4908;47.446;13.900;2022-07-15T04:58:15;93072.78;;;17.32;100.00
9738;BME280;4908;47.446;13.900;2022-07-15T05:00:44;93072.25;;;17.21;100.00
9738;BME280;4908;47.446;13.900;2022-07-15T05:03:11;93082.19;;;17.27;100.00
9738;BME280;4908;47.446;13.900;2022-07-15T05:05:38;93086.94;;;17.20;100.00
9738;BME280;4908;47.446;13.900;2022-07-15T05:08:05;93087.72;;;17.20;100.00
9738;BME280;4908;47.446;13.900;2022-07-15T05:10:32;93089.28;;;17.18;100.00
9738;BME280;4908;47.446;13.900;2022-07-15T05:12:59;93091.72;;;17.12;100.00
9738;BME280;4908;47.446;13.900;2022-07-15T05:15:27;93097.84;;;17.16;100.00
9738;BME280;4908;47.446;13.900;2022-07-15T05:17:56;93102.00;;;17.21;100.00
9738;BME280;4908;47.446;13.900;2022-07-15T05:20:22;93110.13;;;17.21;100.00
9738;BME280;4908;47.446;13.900;2022-07-15T05:22:49;93111.66;;;17.22;100.00
9738;BME280;4908;47.446;13.900;2022-07-15T05:25:16;93104.59;;;17.28;100.00
9738;BME280;4908;47.446;13.900;2022-07-15T05:27:43;93096.22;;;17.42;100.00
9738;BME280;4908;47.446;13.900;2022-07-15T05:30:10;93096.63;;;17.40;100.00
9738;BME280;4908;47.446;13.900;2022-07-15T05:32:41;93103.63;;;17.38;100.00
9738;BME280;4908;47.446;13.900;2022-07-15T05:35:12;93101.41;;;17.33;100.00
9738;BME280;4908;47.446;13.900;2022-07-15T05:37:40;93112.31;;;17.29;100.00
9738;BME280;4908;47.446;13.900;2022-07-15T05:40:08;93115.41;;;17.28;100.00
9738;BME280;4908;47.446;13.900;2022-07-15T05:42:35;93126.31;;;17.24;100.00
9738;BME280;4908;47.446;13.900;2022-07-15T05:45:04;93126.38;;;17.21;100.00
9738;BME280;4908;47.446;13.900;2022-07-15T05:47:31;93123.53;;;17.28;100.00
9738;BME280;4908;47.446;13.900;2022-07-15T05:49:58;93122.81;;;17.24;100.00
9738;BME280;4908;47.446;13.900;2022-07-15T05:52:27;93118.72;;;17.39;100.00
9738;BME280;4908;47.446;13.900;2022-07-15T05:54:54;93128.28;;;17.43;100.00
9738;BME280;4908;47.446;13.900;2022-07-15T05:57:21;93128.72;;;17.19;100.00
9738;BME280;4908;47.446;13.900;2022-07-15T05:59:48;93140.16;;;17.07;100.00
9738;BME280;4908;47.446;13.900;2022-07-15T06:02:15;93144.44;;;17.04;100.00
9738;BME280;4908;47.446;13.900;2022-07-15T06:04:42;93141.56;;;16.91;100.00
9738;BME280;4908;47.446;13.900;2022-07-15T06:07:09;93143.31;;;16.78;100.00
9738;BME280;4908;47.446;13.900;2022-07-15T06:09:37;93144.84;;;16.79;100.00
9738;BME280;4908;47.446;13.900;2022-07-15T06:12:04;93155.56;;;16.86;100.00
9738;BME280;4908;47.446;13.900;2022-07-15T06:14:30;93162.97;;;16.82;100.00
9738;BME280;4908;47.446;13.900;2022-07-15T06:16:57;93152.91;;;16.83;100.00
9738;BME280;4908;47.446;13.900;2022-07-15T06:19:24;93154.59;;;16.73;100.00
9738;BME280;4908;47.446;13.900;2022-07-15T06:21:51;93161.53;;;16.74;100.00
9738;BME280;4908;47.446;13.900;2022-07-15T06:24:17;93161.91;;;16.76;100.00
9738;BME280;4908;47.446;13.900;2022-07-15T06:26:46;93167.19;;;16.83;100.00
9738;BME280;4908;47.446;13.900;2022-07-15T06:29:13;93183.53;;;16.76;100.00
9738;BME280;4908;47.446;13.900;2022-07-15T06:31:40;93175.66;;;16.85;100.00
9738;BME280;4908;47.446;13.900;2022-07-15T06:34:06;93179.44;;;16.91;100.00
9738;BME280;4908;47.446;13.900;2022-07-15T06:36:33;93171.75;;;16.90;100.00
9738;BME280;4908;47.446;13.900;2022-07-15T06:39:00;93180.38;;;16.81;100.00
9738;BME280;4908;47.446;13.900;2022-07-15T06:41:27;93180.84;;;16.76;100.00
9738;BME280;4908;47.446;13.900;2022-07-15T06:43:55;93182.00;;;16.75;100.00
9738;BME280;4908;47.446;13.900;2022-07-15T06:46:22;93195.03;;;16.84;100.00
9738;BME280;4908;47.446;13.900;2022-07-15T06:48:49;93189.56;;;16.87;100.00
9738;BME280;4908;47.446;13.900;2022-07-15T06:51:16;93182.50;;;16.93;100.00
9738;BME280;4908;47.446;13.900;2022-07-15T06:53:43;93186.28;;;16.99;100.00
9738;BME280;4908;47.446;13.900;2022-07-15T06:56:10;93187.44;;;17.22;100.00
9738;BME280;4908;47.446;13.900;2022-07-15T06:58:37;93186.41;;;17.39;100.00
9738;BME280;4908;47.446;13.900;2022-07-15T07:01:06;93183.09;;;17.51;100.00
9738;BME280;4908;47.446;13.900;2022-07-15T07:03:32;93175.06;;;17.67;100.00
9738;BME280;4908;47.446;13.900;2022-07-15T07:06:00;93172.38;;;17.86;100.00
9738;BME280;4908;47.446;13.900;2022-07-15T07:08:26;93168.97;;;18.02;100.00
9738;BME280;4908;47.446;13.900;2022-07-15T07:10:54;93165.47;;;18.21;100.00
9738;BME280;4908;47.446;13.900;2022-07-15T07:13:21;93154.69;;;18.37;100.00
9738;BME280;4908;47.446;13.900;2022-07-15T07:15:48;93158.66;;;18.52;100.00
9738;BME280;4908;47.446;13.900;2022-07-15T07:18:16;93167.03;;;18.58;100.00
9738;BME280;4908;47.446;13.900;2022-07-15T07:20:43;93162.22;;;18.65;100.00
9738;BME280;4908;47.446;13.900;2022-07-15T07:23:10;93165.47;;;18.76;100.00
9738;BME280;4908;47.446;13.900;2022-07-15T07:25:37;93165.66;;;18.86;100.00
9738;BME280;4908;47.446;13.900;2022-07-15T07:28:04;93154.09;;;18.82;100.00
9738;BME280;4908;47.446;13.900;2022-07-15T07:30:31;93162.41;;;18.74;100.00
9738;BME280;4908;47.446;13.900;2022-07-15T07:32:58;93160.72;;;18.81;100.00
9738;BME280;4908;47.446;13.900;2022-07-15T07:35:26;93159.03;;;19.03;100.00
9738;BME280;4908;47.446;13.900;2022-07-15T07:37:53;93152.41;;;19.20;100.00
9738;BME280;4908;47.446;13.900;2022-07-15T07:40:20;93153.53;;;19.38;100.00
9738;BME280;4908;47.446;13.900;2022-07-15T07:42:47;93149.16;;;19.57;100.00
9738;BME280;4908;47.446;13.900;2022-07-15T07:45:13;93148.44;;;19.69;100.00
9738;BME280;4908;47.446;13.900;2022-07-15T07:47:40;93146.75;;;19.59;100.00
9738;BME280;4908;47.446;13.900;2022-07-15T07:50:09;93150.31;;;19.72;100.00
9738;BME280;4908;47.446;13.900;2022-07-15T07:52:38;93149.41;;;19.91;100.00
9738;BME280;4908;47.446;13.900;2022-07-15T07:55:05;93141.91;;;19.95;100.00
9738;BME280;4908;47.446;13.900;2022-07-15T07:57:32;93139.78;;;20.15;100.00
9738;BME280;4908;47.446;13.900;2022-07-15T07:59:59;93145.28;;;20.28;100.00
9738;BME280;4908;47.446;13.900;2022-07-15T08:02:26;93139.53;;;20.51;100.00
9738;BME280;4908;47.446;13.900;2022-07-15T08:04:53;93143.44;;;20.37;100.00
9738;BME280;4908;47.446;13.900;2022-07-15T08:07:21;93135.50;;;20.30;100.00
9738;BME280;4908;47.446;13.900;2022-07-15T08:09:49;93133.63;;;20.27;100.00
9738;BME280;4908;47.446;13.900;2022-07-15T08:12:16;93141.31;;;20.16;100.00
9738;BME280;4908;47.446;13.900;2022-07-15T08:14:43;93137.47;;;20.01;100.00
9738;BME280;4908;47.446;13.900;2022-07-15T08:17:10;93138.84;;;19.64;100.00
9738;BME280;4908;47.446;13.900;2022-07-15T08:19:36;93135.41;;;19.48;100.00
9738;BME280;4908;47.446;13.900;2022-07-15T08:22:03;93132.34;;;19.62;100.00
9738;BME280;4908;47.446;13.900;2022-07-15T08:24:30;93132.69;;;19.64;100.00
9738;BME280;4908;47.446;13.900;2022-07-15T08:26:58;93138.91;;;19.77;100.00
9738;BME280;4908;47.446;13.900;2022-07-15T08:29:27;93129.63;;;19.62;100.00
9738;BME280;4908;47.446;13.900;2022-07-15T08:31:53;93133.91;;;19.31;100.00
9738;BME280;4908;47.446;13.900;2022-07-15T08:34:20;93136.28;;;19.45;100.00
9738;BME280;4908;47.446;13.900;2022-07-15T08:36:47;93134.75;;;19.44;100.00
9738;BME280;4908;47.446;13.900;2022-07-15T08:39:14;93133.72;;;19.54;100.00
9738;BME280;4908;47.446;13.900;2022-07-15T08:41:41;93125.69;;;19.63;100.00
9738;BME280;4908;47.446;13.900;2022-07-15T08:44:09;93131.28;;;19.72;100.00
9738;BME280;4908;47.446;13.900;2022-07-15T08:46:36;93140.25;;;19.85;100.00
9738;BME280;4908;47.446;13.900;2022-07-15T08:49:05;93133.56;;;19.74;100.00
9738;BME280;4908;47.446;13.900;2022-07-15T08:51:35;93133.75;;;19.66;100.00
9738;BME280;4908;47.446;13.900;2022-07-15T08:54:04;93133.84;;;19.63;100.00
9738;BME280;4908;47.446;13.900;2022-07-15T08:56:32;93127.13;;;19.67;100.00
9738;BME280;4908;47.446;13.900;2022-07-15T08:59:00;93129.31;;;19.73;100.00
9738;BME280;4908;47.446;13.900;2022-07-15T09:01:30;93128.47;;;19.76;100.00
9738;BME280;4908;47.446;13.900;2022-07-15T09:03:58;93125.31;;;19.77;100.00
9738;BME280;4908;47.446;13.900;2022-07-15T09:06:35;93125.53;;;19.70;100.00
9738;BME280;4908;47.446;13.900;2022-07-15T09:09:21;93124.72;;;19.98;100.00
9738;BME280;4908;47.446;13.900;2022-07-15T09:11:53;93124.53;;;20.05;100.00
9738;BME280;4908;47.446;13.900;2022-07-15T09:14:21;93115.56;;;20.21;100.00
9738;BME280;4908;47.446;13.900;2022-07-15T09:16:49;93120.13;;;20.36;100.00
9738;BME280;4908;47.446;13.900;2022-07-15T09:19:16;93124.28;;;20.41;100.00
9738;BME280;4908;47.446;13.900;2022-07-15T09:21:43;93127.97;;;20.22;100.00
9738;BME280;4908;47.446;13.900;2022-07-15T09:24:17;93129.19;;;20.33;100.00
9738;BME280;4908;47.446;13.900;2022-07-15T09:26:44;93126.38;;;20.49;100.00
9738;BME280;4908;47.446;13.900;2022-07-15T09:29:14;93122.34;;;20.54;100.00
9738;BME280;4908;47.446;13.900;2022-07-15T09:31:57;93124.69;;;20.27;100.00
9738;BME280;4908;47.446;13.900;2022-07-15T09:35:00;93131.03;;;20.36;100.00
9738;BME280;4908;47.446;13.900;2022-07-15T09:37:27;93126.38;;;20.62;100.00
9738;BME280;4908;47.446;13.900;2022-07-15T09:39:55;93131.59;;;20.82;100.00
9738;BME280;4908;47.446;13.900;2022-07-15T09:42:22;93124.00;;;21.02;100.00
9738;BME280;4908;47.446;13.900;2022-07-15T09:44:49;93133.09;;;21.33;100.00
9738;BME280;4908;47.446;13.900;2022-07-15T09:47:19;93124.50;;;21.56;100.00
9738;BME280;4908;47.446;13.900;2022-07-15T09:49:48;93128.44;;;21.55;100.00
9738;BME280;4908;47.446;13.900;2022-07-15T09:52:15;93116.59;;;21.71;100.00
9738;BME280;4908;47.446;13.900;2022-07-15T09:54:46;93116.25;;;21.47;100.00
9738;BME280;4908;47.446;13.900;2022-07-15T09:57:15;93111.06;;;21.62;100.00
9738;BME280;4908;47.446;13.900;2022-07-15T09:59:42;93115.03;;;21.82;100.00
9738;BME280;4908;47.446;13.900;2022-07-15T10:02:09;93100.84;;;21.87;100.00
9738;BME280;4908;47.446;13.900;2022-07-15T10:04:38;93113.78;;;21.96;100.00
9738;BME280;4908;47.446;13.900;2022-07-15T10:07:05;93110.22;;;22.08;100.00
9738;BME280;4908;47.446;13.900;2022-07-15T10:09:34;93109.81;;;21.75;100.00
9738;BME280;4908;47.446;13.900;2022-07-15T10:12:07;93100.09;;;21.87;100.00
9738;BME280;4908;47.446;13.900;2022-07-15T10:14:54;93107.59;;;21.95;100.00
9738;BME280;4908;47.446;13.900;2022-07-15T10:17:39;93110.41;;;22.13;100.00
9738;BME280;4908;47.446;13.900;2022-07-15T10:20:27;93103.84;;;22.33;100.00
9738;BME280;4908;47.446;13.900;2022-07-15T10:23:04;93104.84;;;22.48;100.00
9738;BME280;4908;47.446;13.900;2022-07-15T10:25:53;93111.47;;;22.59;100.00
9738;BME280;4908;47.446;13.900;2022-07-15T10:28:31;93102.22;;;22.66;100.00
9738;BME280;4908;47.446;13.900;2022-07-15T10:31:15;93099.25;;;22.51;100.00
9738;BME280;4908;47.446;13.900;2022-07-15T10:33:42;93095.91;;;21.95;100.00
9738;BME280;4908;47.446;13.900;2022-07-15T10:36:10;93094.63;;;22.08;100.00
9738;BME280;4908;47.446;13.900;2022-07-15T10:38:40;93093.84;;;22.29;100.00
9738;BME280;4908;47.446;13.900;2022-07-15T10:41:10;93087.13;;;22.00;100.00
9738;BME280;4908;47.446;13.900;2022-07-15T10:46:25;93087.75;;;22.04;100.00
9738;BME280;4908;47.446;13.900;2022-07-15T10:49:28;93092.59;;;22.00;100.00
9738;BME280;4908;47.446;13.900;2022-07-15T10:52:10;93072.81;;;22.08;100.00
9738;BME280;4908;47.446;13.900;2022-07-15T10:54:39;93078.38;;;22.26;100.00
9738;BME280;4908;47.446;13.900;2022-07-15T10:57:08;93072.03;;;22.39;100.00
9738;BME280;4908;47.446;13.900;2022-07-15T10:59:36;93073.88;;;22.42;100.00
9738;BME280;4908;47.446;13.900;2022-07-15T11:02:14;93066.34;;;22.55;100.00
9738;BME280;4908;47.446;13.900;2022-07-15T11:04:43;93066.94;;;22.50;100.00
9738;BME280;4908;47.446;13.900;2022-07-15T11:07:29;93073.81;;;21.80;100.00
9738;BME280;4908;47.446;13.900;2022-07-15T11:10:12;93072.16;;;22.04;100.00
9738;BME280;4908;47.446;13.900;2022-07-15T11:12:58;93063.41;;;22.09;100.00
9738;BME280;4908;47.446;13.900;2022-07-15T11:15:28;93057.69;;;22.16;100.00
9738;BME280;4908;47.446;13.900;2022-07-15T11:17:56;93051.19;;;22.54;100.00
9738;BME280;4908;47.446;13.900;2022-07-15T11:20:25;93055.22;;;22.71;100.00
9738;BME280;4908;47.446;13.900;2022-07-15T11:22:56;93057.88;;;22.92;100.00
9738;BME280;4908;47.446;13.900;2022-07-15T11:25:25;93057.88;;;23.10;100.00
9738;BME280;4908;47.446;13.900;2022-07-15T11:28:09;93058.44;;;22.78;100.00
9738;BME280;4908;47.446;13.900;2022-07-15T11:30:38;93048.91;;;23.01;100.00
9738;BME280;4908;47.446;13.900;2022-07-15T11:33:07;93049.53;;;23.05;100.00
9738;BME280;4908;47.446;13.900;2022-07-15T11:35:46;93056.09;;;22.68;100.00
9738;BME280;4908;47.446;13.900;2022-07-15T11:38:16;93048.81;;;22.65;100.00
9738;BME280;4908;47.446;13.900;2022-07-15T11:40:46;93039.16;;;22.73;100.00
9738;BME280;4908;47.446;13.900;2022-07-15T11:43:31;93047.66;;;22.84;100.00
9738;BME280;4908;47.446;13.900;2022-07-15T11:46:16;93048.91;;;23.01;100.00
9738;BME280;4908;47.446;13.900;2022-07-15T11:48:43;93048.28;;;22.79;100.00
9738;BME280;4908;47.446;13.900;2022-07-15T11:51:11;93046.63;;;22.51;100.00
9738;BME280;4908;47.446;13.900;2022-07-15T11:53:41;93040.16;;;22.26;100.00
9738;BME280;4908;47.446;13.900;2022-07-15T11:56:09;93043.91;;;22.20;100.00
9738;BME280;4908;47.446;13.900;2022-07-15T11:58:38;93037.44;;;22.26;100.00
9738;BME280;4908;47.446;13.900;2022-07-15T12:01:07;93049.00;;;22.40;100.00
9738;BME280;4908;47.446;13.900;2022-07-15T12:03:37;93042.91;;;22.36;100.00
9738;BME280;4908;47.446;13.900;2022-07-15T12:06:11;93044.38;;;22.18;100.00
9738;BME280;4908;47.446;13.900;2022-07-15T12:08:45;93037.97;;;22.12;100.00
9738;BME280;4908;47.446;13.900;2022-07-15T12:11:20;93030.41;;;22.16;100.00
9738;BME280;4908;47.446;13.900;2022-07-15T12:13:53;93022.69;;;22.15;100.00
9738;BME280;4908;47.446;13.900;2022-07-15T12:16:24;93039.28;;;22.08;100.00
9738;BME280;4908;47.446;13.900;2022-07-15T12:18:53;93036.50;;;22.20;100.00
9738;BME280;4908;47.446;13.900;2022-07-15T12:21:21;93029.47;;;22.10;100.00
9738;BME280;4908;47.446;13.900;2022-07-15T12:24:04;93030.94;;;22.02;100.00
9738;BME280;4908;47.446;13.900;2022-07-15T12:26:33;93029.94;;;21.87;100.00
9738;BME280;4908;47.446;13.900;2022-07-15T12:29:02;93032.81;;;21.84;100.00
9738;BME280;4908;47.446;13.900;2022-07-15T12:31:31;93031.72;;;21.81;100.00
9738;BME280;4908;47.446;13.900;2022-07-15T12:33:58;93027.78;;;21.82;100.00
9738;BME280;4908;47.446;13.900;2022-07-15T12:36:27;93022.44;;;21.79;100.00
9738;BME280;4908;47.446;13.900;2022-07-15T12:39:08;93032.25;;;21.76;100.00
9738;BME280;4908;47.446;13.900;2022-07-15T12:41:35;93038.03;;;21.78;100.00
9738;BME280;4908;47.446;13.900;2022-07-15T12:44:04;93026.06;;;21.76;100.00
9738;BME280;4908;47.446;13.900;2022-07-15T12:46:58;93023.75;;;21.74;100.00
9738;BME280;4908;47.446;13.900;2022-07-15T12:49:46;93016.75;;;21.64;100.00
9738;BME280;4908;47.446;13.900;2022-07-15T12:52:31;93024.97;;;21.73;100.00
9738;BME280;4908;47.446;13.900;2022-07-15T12:55:11;93022.81;;;21.90;100.00
9738;BME280;4908;47.446;13.900;2022-07-15T12:57:38;93030.31;;;21.98;100.00
9738;BME280;4908;47.446;13.900;2022-07-15T13:00:09;93022.88;;;22.29;100.00
9738;BME280;4908;47.446;13.900;2022-07-15T13:03:01;93017.75;;;22.41;100.00
9738;BME280;4908;47.446;13.900;2022-07-15T13:05:30;93014.09;;;22.35;100.00
9738;BME280;4908;47.446;13.900;2022-07-15T13:07:58;93018.69;;;22.47;100.00
9738;BME280;4908;47.446;13.900;2022-07-15T13:10:27;93012.78;;;22.48;100.00
9738;BME280;4908;47.446;13.900;2022-07-15T13:12:54;93008.31;;;22.33;100.00
9738;BME280;4908;47.446;13.900;2022-07-15T13:15:21;93002.16;;;22.41;100.00
